LXJ952 KEGE-KOMA
Flight info
| Callsign | LXJ952 |
|---|---|
| Flight time | 1h 8m |
| Altitude | 41000 |
| Route | BEVVR1 APRES COORZ DVV GRI HOWRY3 |
| Aircraft | C750/M-VGDW/C |
Departure
| Time | 2026-04-29 22:12 |
|---|---|
| Airport | Eagle County Regional Airport (KEGE) |
Arrival
| Time | 2026-04-29 23:20 |
|---|---|
| Airport | Eppley Airfield (KOMA) |
| Time | Latitude | Longitude | Altitude | Speed | Heading |
|---|---|---|---|---|---|
| 2026-04-29 22:03 | 39.64123 | -106.90994 | 6528 ft | 0 kts | 262° |
| 2026-04-29 22:09 | 39.64123 | -106.90996 | 6530 ft | 2 kts | 262° |
| 2026-04-29 22:09 | 39.64147 | -106.91012 | 6529 ft | 7 kts | 353° |
| 2026-04-29 22:09 | 39.64175 | -106.90972 | 6528 ft | 8 kts | 81° |
| 2026-04-29 22:09 | 39.64211 | -106.90930 | 6530 ft | 10 kts | 354° |
| 2026-04-29 22:10 | 39.64247 | -106.90848 | 6532 ft | 15 kts | 82° |
| 2026-04-29 22:10 | 39.64266 | -106.90679 | 6537 ft | 23 kts | 82° |
| 2026-04-29 22:10 | 39.64292 | -106.90443 | 6542 ft | 29 kts | 82° |
| 2026-04-29 22:10 | 39.64309 | -106.90279 | 6547 ft | 26 kts | 82° |
| 2026-04-29 22:11 | 39.64331 | -106.90089 | 6552 ft | 17 kts | 82° |
| 2026-04-29 22:11 | 39.64395 | -106.90015 | 6555 ft | 14 kts | 352° |
| 2026-04-29 22:11 | 39.64443 | -106.90092 | 6553 ft | 17 kts | 261° |
| 2026-04-29 22:11 | 39.64407 | -106.90418 | 6543 ft | 73 kts | 262° |
| 2026-04-29 22:12 | 39.64294 | -106.91440 | 6574 ft | 140 kts | 259° |
| 2026-04-29 22:12 | 39.64162 | -106.92825 | 6894 ft | 169 kts | 262° |
| 2026-04-29 22:12 | 39.63734 | -106.94337 | 7240 ft | 194 kts | 230° |
| 2026-04-29 22:12 | 39.62543 | -106.95102 | 8121 ft | 187 kts | 201° |
| 2026-04-29 22:13 | 39.61348 | -106.95753 | 8874 ft | 189 kts | 211° |
| 2026-04-29 22:13 | 39.60199 | -106.96716 | 9328 ft | 208 kts | 217° |
| 2026-04-29 22:13 | 39.58942 | -106.97869 | 9583 ft | 232 kts | 220° |
| 2026-04-29 22:13 | 39.58094 | -106.99668 | 9954 ft | 236 kts | 256° |
| 2026-04-29 22:14 | 39.57955 | -107.01842 | 10486 ft | 254 kts | 271° |
| 2026-04-29 22:14 | 39.58070 | -107.04238 | 10864 ft | 278 kts | 275° |
| 2026-04-29 22:14 | 39.58692 | -107.06730 | 10942 ft | 309 kts | 299° |
| 2026-04-29 22:14 | 39.60185 | -107.08909 | 11022 ft | 338 kts | 316° |
| 2026-04-29 22:15 | 39.62288 | -107.10362 | 11682 ft | 346 kts | 338° |
| 2026-04-29 22:15 | 39.64683 | -107.10819 | 12410 ft | 356 kts | 359° |
| 2026-04-29 22:15 | 39.67147 | -107.10276 | 13131 ft | 362 kts | 10° |
| 2026-04-29 22:15 | 39.69608 | -107.09528 | 13902 ft | 366 kts | 11° |
| 2026-04-29 22:16 | 39.72005 | -107.08307 | 14326 ft | 380 kts | 29° |
| 2026-04-29 22:16 | 39.73972 | -107.06012 | 15070 ft | 383 kts | 48° |
| 2026-04-29 22:16 | 39.75359 | -107.03021 | 15687 ft | 389 kts | 61° |
| 2026-04-29 22:16 | 39.76575 | -106.99864 | 16406 ft | 393 kts | 63° |
| 2026-04-29 22:17 | 39.77804 | -106.96675 | 17079 ft | 397 kts | 62° |
| 2026-04-29 22:17 | 39.79068 | -106.93514 | 17750 ft | 402 kts | 61° |
| 2026-04-29 22:17 | 39.80369 | -106.90270 | 18420 ft | 408 kts | 62° |
| 2026-04-29 22:17 | 39.81669 | -106.86965 | 19028 ft | 413 kts | 62° |
| 2026-04-29 22:18 | 39.82976 | -106.83614 | 19642 ft | 418 kts | 62° |
| 2026-04-29 22:18 | 39.84311 | -106.80225 | 20270 ft | 423 kts | 61° |
| 2026-04-29 22:18 | 39.85667 | -106.76797 | 20895 ft | 429 kts | 61° |
| 2026-04-29 22:18 | 39.87032 | -106.73325 | 21530 ft | 434 kts | 61° |
| 2026-04-29 22:19 | 39.88205 | -106.69671 | 21988 ft | 444 kts | 72° |
| 2026-04-29 22:19 | 39.88782 | -106.65711 | 22704 ft | 447 kts | 83° |
| 2026-04-29 22:19 | 39.89025 | -106.61646 | 23276 ft | 453 kts | 86° |
| 2026-04-29 22:19 | 39.89244 | -106.57535 | 23867 ft | 458 kts | 86° |
| 2026-04-29 22:20 | 39.89487 | -106.53374 | 24397 ft | 463 kts | 85° |
| 2026-04-29 22:20 | 39.89745 | -106.49168 | 24922 ft | 468 kts | 85° |
| 2026-04-29 22:20 | 39.89992 | -106.44924 | 25434 ft | 473 kts | 85° |
| 2026-04-29 22:20 | 39.90229 | -106.40639 | 25959 ft | 477 kts | 85° |
| 2026-04-29 22:21 | 39.90473 | -106.36301 | 26447 ft | 482 kts | 85° |
| 2026-04-29 22:21 | 39.90725 | -106.31930 | 26973 ft | 487 kts | 85° |
| 2026-04-29 22:21 | 39.90975 | -106.27513 | 27509 ft | 492 kts | 85° |
| 2026-04-29 22:21 | 39.91140 | -106.23048 | 27977 ft | 497 kts | 90° |
| 2026-04-29 22:22 | 39.90807 | -106.18548 | 28513 ft | 500 kts | 98° |
| 2026-04-29 22:22 | 39.90340 | -106.14046 | 29034 ft | 505 kts | 98° |
| 2026-04-29 22:22 | 39.89887 | -106.09483 | 29542 ft | 510 kts | 98° |
| 2026-04-29 22:22 | 39.89439 | -106.04885 | 30062 ft | 515 kts | 98° |
| 2026-04-29 22:23 | 39.88971 | -106.00236 | 30499 ft | 520 kts | 98° |
| 2026-04-29 22:23 | 39.88489 | -105.95560 | 30937 ft | 524 kts | 98° |
| 2026-04-29 22:23 | 39.88006 | -105.90835 | 31452 ft | 526 kts | 98° |
| 2026-04-29 22:23 | 39.87532 | -105.86132 | 32066 ft | 525 kts | 98° |
| 2026-04-29 22:24 | 39.87058 | -105.81472 | 32595 ft | 527 kts | 99° |
| 2026-04-29 22:24 | 39.86568 | -105.76739 | 33175 ft | 527 kts | 99° |
| 2026-04-29 22:24 | 39.86155 | -105.71991 | 33699 ft | 530 kts | 94° |
| 2026-04-29 22:24 | 39.86220 | -105.67192 | 34255 ft | 531 kts | 87° |
| 2026-04-29 22:25 | 39.86408 | -105.62396 | 34754 ft | 531 kts | 87° |
| 2026-04-29 22:25 | 39.86568 | -105.57582 | 35207 ft | 533 kts | 88° |
| 2026-04-29 22:25 | 39.86720 | -105.52753 | 35707 ft | 535 kts | 88° |
| 2026-04-29 22:25 | 39.86888 | -105.47903 | 36181 ft | 536 kts | 87° |
| 2026-04-29 22:26 | 39.87061 | -105.43052 | 36672 ft | 538 kts | 87° |
| 2026-04-29 22:26 | 39.87223 | -105.38188 | 37219 ft | 539 kts | 88° |
| 2026-04-29 22:26 | 39.87375 | -105.33313 | 37757 ft | 540 kts | 88° |
| 2026-04-29 22:26 | 39.87532 | -105.28425 | 38327 ft | 541 kts | 88° |
| 2026-04-29 22:27 | 39.87692 | -105.23519 | 38779 ft | 544 kts | 87° |
| 2026-04-29 22:27 | 39.87850 | -105.18597 | 39253 ft | 543 kts | 88° |
| 2026-04-29 22:27 | 39.88001 | -105.13695 | 39797 ft | 541 kts | 88° |
| 2026-04-29 22:27 | 39.88148 | -105.08825 | 40320 ft | 539 kts | 88° |
| 2026-04-29 22:28 | 39.88297 | -105.03941 | 40843 ft | 535 kts | 88° |
| 2026-04-29 22:28 | 39.88442 | -104.99123 | 41149 ft | 537 kts | 88° |
| 2026-04-29 22:28 | 39.88586 | -104.94211 | 41118 ft | 548 kts | 88° |
| 2026-04-29 22:29 | 39.88875 | -104.84117 | 41112 ft | 568 kts | 88° |
| 2026-04-29 22:29 | 39.89167 | -104.73690 | 41123 ft | 583 kts | 88° |
| 2026-04-29 22:30 | 39.89548 | -104.63061 | 41103 ft | 592 kts | 83° |
| 2026-04-29 22:30 | 39.91320 | -104.52612 | 41106 ft | 590 kts | 71° |
| 2026-04-29 22:31 | 39.93622 | -104.42431 | 41107 ft | 591 kts | 73° |
| 2026-04-29 22:31 | 39.95515 | -104.32012 | 41096 ft | 590 kts | 73° |
| 2026-04-29 22:32 | 39.97713 | -104.21713 | 41082 ft | 590 kts | 73° |
| 2026-04-29 22:32 | 39.99678 | -104.11314 | 41077 ft | 590 kts | 74° |
| 2026-04-29 22:33 | 40.01781 | -104.00975 | 41087 ft | 590 kts | 73° |
| 2026-04-29 22:33 | 40.03788 | -103.90587 | 41096 ft | 590 kts | 74° |
| 2026-04-29 22:34 | 40.05825 | -103.80234 | 41096 ft | 589 kts | 73° |
| 2026-04-29 22:34 | 40.07839 | -103.69870 | 41104 ft | 589 kts | 74° |
| 2026-04-29 22:35 | 40.09838 | -103.59504 | 41099 ft | 588 kts | 73° |
| 2026-04-29 22:35 | 40.11839 | -103.49149 | 41126 ft | 588 kts | 74° |
| 2026-04-29 22:36 | 40.13810 | -103.38807 | 41144 ft | 587 kts | 74° |
| 2026-04-29 22:36 | 40.15778 | -103.28507 | 41153 ft | 586 kts | 74° |
| 2026-04-29 22:37 | 40.17720 | -103.18227 | 41157 ft | 587 kts | 74° |
| 2026-04-29 22:37 | 40.19676 | -103.07865 | 41152 ft | 586 kts | 74° |
| 2026-04-29 22:38 | 40.21616 | -102.97500 | 41138 ft | 587 kts | 74° |
| 2026-04-29 22:38 | 40.23551 | -102.87127 | 41122 ft | 586 kts | 74° |
| 2026-04-29 22:39 | 40.25472 | -102.76763 | 41113 ft | 586 kts | 74° |
| 2026-04-29 22:39 | 40.27387 | -102.66383 | 41115 ft | 586 kts | 75° |
| 2026-04-29 22:40 | 40.29290 | -102.56008 | 41118 ft | 586 kts | 75° |
| 2026-04-29 22:40 | 40.31185 | -102.45624 | 41124 ft | 586 kts | 75° |
| 2026-04-29 22:41 | 40.33067 | -102.35245 | 41130 ft | 585 kts | 75° |
| 2026-04-29 22:41 | 40.34940 | -102.24864 | 41138 ft | 585 kts | 75° |
| 2026-04-29 22:42 | 40.36804 | -102.14478 | 41145 ft | 585 kts | 75° |
| 2026-04-29 22:42 | 40.38658 | -102.04091 | 41152 ft | 585 kts | 75° |
| 2026-04-29 22:43 | 40.40503 | -101.93695 | 41155 ft | 585 kts | 75° |
| 2026-04-29 22:43 | 40.42340 | -101.83281 | 41157 ft | 587 kts | 75° |
| 2026-04-29 22:44 | 40.44170 | -101.72854 | 41158 ft | 586 kts | 75° |
| 2026-04-29 22:44 | 40.45988 | -101.62424 | 41154 ft | 586 kts | 75° |
| 2026-04-29 22:45 | 40.47805 | -101.51972 | 41159 ft | 586 kts | 75° |
| 2026-04-29 22:45 | 40.49603 | -101.41533 | 41156 ft | 586 kts | 76° |
| 2026-04-29 22:46 | 40.51383 | -101.31161 | 41159 ft | 586 kts | 76° |
| 2026-04-29 22:46 | 40.53164 | -101.20706 | 41154 ft | 586 kts | 76° |
| 2026-04-29 22:47 | 40.54937 | -101.10260 | 41149 ft | 586 kts | 76° |
| 2026-04-29 22:47 | 40.56699 | -100.99794 | 41143 ft | 586 kts | 76° |
| 2026-04-29 22:48 | 40.58455 | -100.89323 | 41138 ft | 587 kts | 76° |
| 2026-04-29 22:48 | 40.60199 | -100.78842 | 41132 ft | 586 kts | 76° |
| 2026-04-29 22:49 | 40.61936 | -100.68359 | 41129 ft | 586 kts | 76° |
| 2026-04-29 22:49 | 40.63661 | -100.57870 | 41123 ft | 586 kts | 76° |
| 2026-04-29 22:50 | 40.65377 | -100.47384 | 41113 ft | 586 kts | 76° |
| 2026-04-29 22:50 | 40.67083 | -100.36887 | 41116 ft | 586 kts | 76° |
| 2026-04-29 22:51 | 40.68779 | -100.26395 | 41122 ft | 586 kts | 76° |
| 2026-04-29 22:51 | 40.71302 | -100.10661 | 41119 ft | 585 kts | 77° |
| 2026-04-29 22:52 | 40.72963 | -100.00225 | 41125 ft | 585 kts | 77° |
| 2026-04-29 22:52 | 40.74623 | -99.89726 | 41128 ft | 585 kts | 77° |
| 2026-04-29 22:53 | 40.76274 | -99.79227 | 41129 ft | 585 kts | 77° |
| 2026-04-29 22:53 | 40.77916 | -99.68710 | 41123 ft | 585 kts | 77° |
| 2026-04-29 22:54 | 40.79548 | -99.58199 | 41132 ft | 585 kts | 77° |
| 2026-04-29 22:54 | 40.81169 | -99.47685 | 41130 ft | 584 kts | 77° |
| 2026-04-29 22:55 | 40.82784 | -99.37151 | 41134 ft | 584 kts | 77° |
| 2026-04-29 22:55 | 40.84386 | -99.26625 | 41129 ft | 584 kts | 77° |
| 2026-04-29 22:56 | 40.85978 | -99.16103 | 41124 ft | 584 kts | 78° |
| 2026-04-29 22:56 | 40.87557 | -99.05594 | 41125 ft | 584 kts | 78° |
| 2026-04-29 22:57 | 40.89111 | -98.95178 | 41096 ft | 563 kts | 78° |
| 2026-04-29 22:57 | 40.90621 | -98.85016 | 41101 ft | 563 kts | 78° |
| 2026-04-29 22:58 | 40.92119 | -98.74844 | 41110 ft | 570 kts | 78° |
| 2026-04-29 22:58 | 40.93645 | -98.64432 | 41119 ft | 581 kts | 78° |
| 2026-04-29 22:59 | 40.95177 | -98.53895 | 41113 ft | 585 kts | 78° |
| 2026-04-29 22:59 | 40.96703 | -98.43340 | 41087 ft | 584 kts | 78° |
| 2026-04-29 23:00 | 40.98225 | -98.32835 | 40481 ft | 574 kts | 77° |
| 2026-04-29 23:00 | 40.99317 | -98.27799 | 39736 ft | 563 kts | 70° |
| 2026-04-29 23:00 | 41.00639 | -98.22994 | 39017 ft | 550 kts | 67° |
| 2026-04-29 23:01 | 41.01543 | -98.19882 | 38496 ft | 543 kts | 67° |
| 2026-04-29 23:01 | 41.03231 | -98.13679 | 37557 ft | 527 kts | 69° |
| 2026-04-29 23:01 | 41.04388 | -98.09123 | 36891 ft | 517 kts | 69° |
| 2026-04-29 23:01 | 41.05162 | -98.06166 | 36446 ft | 514 kts | 68° |
| 2026-04-29 23:02 | 41.06379 | -98.01720 | 35778 ft | 512 kts | 67° |
| 2026-04-29 23:02 | 41.07595 | -97.97277 | 35101 ft | 516 kts | 68° |
| 2026-04-29 23:02 | 41.08787 | -97.92749 | 34431 ft | 522 kts | 69° |
| 2026-04-29 23:02 | 41.09973 | -97.88184 | 33707 ft | 525 kts | 68° |
| 2026-04-29 23:03 | 41.11184 | -97.83622 | 33020 ft | 527 kts | 68° |
| 2026-04-29 23:03 | 41.12417 | -97.79031 | 32332 ft | 530 kts | 68° |
| 2026-04-29 23:03 | 41.13640 | -97.74407 | 31626 ft | 533 kts | 68° |
| 2026-04-29 23:03 | 41.14857 | -97.69739 | 30919 ft | 534 kts | 68° |
| 2026-04-29 23:04 | 41.16077 | -97.65077 | 30209 ft | 534 kts | 68° |
| 2026-04-29 23:04 | 41.17299 | -97.60451 | 29470 ft | 529 kts | 68° |
| 2026-04-29 23:04 | 41.18502 | -97.55871 | 28781 ft | 520 kts | 68° |
| 2026-04-29 23:04 | 41.19677 | -97.51365 | 28100 ft | 513 kts | 69° |
| 2026-04-29 23:05 | 41.20835 | -97.46917 | 27424 ft | 506 kts | 69° |
| 2026-04-29 23:05 | 41.21979 | -97.42531 | 26766 ft | 500 kts | 69° |
| 2026-04-29 23:05 | 41.23110 | -97.38190 | 26101 ft | 494 kts | 69° |
| 2026-04-29 23:05 | 41.24223 | -97.33901 | 25456 ft | 488 kts | 69° |
| 2026-04-29 23:06 | 41.25306 | -97.29712 | 24824 ft | 483 kts | 70° |
| 2026-04-29 23:06 | 41.26403 | -97.25473 | 24192 ft | 477 kts | 70° |
| 2026-04-29 23:06 | 41.27475 | -97.21327 | 23533 ft | 471 kts | 70° |
| 2026-04-29 23:06 | 41.28529 | -97.17238 | 22897 ft | 464 kts | 70° |
| 2026-04-29 23:07 | 41.29569 | -97.13194 | 22292 ft | 460 kts | 70° |
| 2026-04-29 23:07 | 41.30584 | -97.09243 | 21696 ft | 456 kts | 70° |
| 2026-04-29 23:07 | 41.31604 | -97.05268 | 21101 ft | 452 kts | 70° |
| 2026-04-29 23:07 | 41.32610 | -97.01339 | 20513 ft | 447 kts | 70° |
| 2026-04-29 23:08 | 41.33608 | -96.97436 | 19928 ft | 443 kts | 71° |
| 2026-04-29 23:08 | 41.34587 | -96.93598 | 19341 ft | 438 kts | 71° |
| 2026-04-29 23:08 | 41.35567 | -96.89755 | 18764 ft | 434 kts | 71° |
| 2026-04-29 23:08 | 41.36288 | -96.85896 | 18068 ft | 429 kts | 85° |
| 2026-04-29 23:09 | 41.36107 | -96.82002 | 17548 ft | 418 kts | 102° |
| 2026-04-29 23:09 | 41.35480 | -96.78236 | 17054 ft | 415 kts | 106° |
| 2026-04-29 23:09 | 41.34787 | -96.74521 | 16503 ft | 412 kts | 107° |
| 2026-04-29 23:09 | 41.34125 | -96.70839 | 15954 ft | 407 kts | 105° |
| 2026-04-29 23:10 | 41.33507 | -96.67179 | 15406 ft | 403 kts | 104° |
| 2026-04-29 23:10 | 41.32887 | -96.63562 | 14882 ft | 399 kts | 105° |
| 2026-04-29 23:10 | 41.32252 | -96.60000 | 14355 ft | 395 kts | 105° |
| 2026-04-29 23:10 | 41.31619 | -96.56468 | 13825 ft | 390 kts | 105° |
| 2026-04-29 23:11 | 41.31006 | -96.52971 | 13289 ft | 386 kts | 104° |
| 2026-04-29 23:11 | 41.30399 | -96.49501 | 12777 ft | 383 kts | 104° |
| 2026-04-29 23:11 | 41.29790 | -96.46067 | 12277 ft | 380 kts | 104° |
| 2026-04-29 23:11 | 41.29184 | -96.42667 | 11784 ft | 377 kts | 104° |
| 2026-04-29 23:12 | 41.28586 | -96.39304 | 11289 ft | 366 kts | 104° |
| 2026-04-29 23:12 | 41.28018 | -96.36099 | 10816 ft | 347 kts | 103° |
| 2026-04-29 23:12 | 41.27474 | -96.33048 | 10377 ft | 327 kts | 103° |
| 2026-04-29 23:12 | 41.26961 | -96.30186 | 9944 ft | 312 kts | 103° |
| 2026-04-29 23:13 | 41.26468 | -96.27421 | 9519 ft | 304 kts | 103° |
| 2026-04-29 23:13 | 41.25986 | -96.24720 | 9124 ft | 298 kts | 103° |
| 2026-04-29 23:13 | 41.25509 | -96.22053 | 8741 ft | 295 kts | 103° |
| 2026-04-29 23:13 | 41.25040 | -96.19442 | 8359 ft | 293 kts | 103° |
| 2026-04-29 23:14 | 41.24565 | -96.16786 | 7958 ft | 291 kts | 103° |
| 2026-04-29 23:14 | 41.24098 | -96.14188 | 7586 ft | 289 kts | 103° |
| 2026-04-29 23:14 | 41.23639 | -96.11638 | 7212 ft | 287 kts | 104° |
| 2026-04-29 23:14 | 41.23178 | -96.09073 | 6832 ft | 284 kts | 104° |
| 2026-04-29 23:15 | 41.22729 | -96.06582 | 6453 ft | 271 kts | 104° |
| 2026-04-29 23:15 | 41.22298 | -96.04197 | 6088 ft | 260 kts | 103° |
| 2026-04-29 23:15 | 41.21882 | -96.01902 | 5743 ft | 251 kts | 103° |
| 2026-04-29 23:15 | 41.21480 | -95.99680 | 5414 ft | 243 kts | 102° |
| 2026-04-29 23:16 | 41.21080 | -95.97534 | 5110 ft | 235 kts | 103° |
| 2026-04-29 23:16 | 41.20525 | -95.95547 | 4835 ft | 227 kts | 109° |
| 2026-04-29 23:16 | 41.19987 | -95.93590 | 4533 ft | 223 kts | 107° |
| 2026-04-29 23:16 | 41.19462 | -95.91659 | 4249 ft | 222 kts | 107° |
| 2026-04-29 23:17 | 41.18970 | -95.89710 | 3929 ft | 222 kts | 100° |
| 2026-04-29 23:17 | 41.18987 | -95.87691 | 3617 ft | 218 kts | 77° |
| 2026-04-29 23:17 | 41.19535 | -95.85862 | 3316 ft | 210 kts | 55° |
| 2026-04-29 23:17 | 41.20489 | -95.84464 | 3081 ft | 201 kts | 37° |
| 2026-04-29 23:18 | 41.21719 | -95.83594 | 2809 ft | 203 kts | 18° |
| 2026-04-29 23:18 | 41.23094 | -95.83329 | 2536 ft | 192 kts | 359° |
| 2026-04-29 23:18 | 41.24337 | -95.83638 | 2293 ft | 179 kts | 342° |
| 2026-04-29 23:18 | 41.25426 | -95.84406 | 2048 ft | 167 kts | 326° |
| 2026-04-29 23:19 | 41.26318 | -95.85282 | 1834 ft | 160 kts | 325° |
| 2026-04-29 23:19 | 41.27226 | -95.86125 | 1640 ft | 163 kts | 325° |
| 2026-04-29 23:19 | 41.28127 | -95.86972 | 1434 ft | 147 kts | 324° |
| 2026-04-29 23:19 | 41.28921 | -95.87728 | 1151 ft | 137 kts | 324° |
| 2026-04-29 23:20 | 41.29649 | -95.88427 | 988 ft | 118 kts | 324° |
| 2026-04-29 23:20 | 41.30181 | -95.88931 | 988 ft | 60 kts | 324° |
| 2026-04-29 23:20 | 41.30394 | -95.89132 | 985 ft | 30 kts | 324° |
| 2026-04-29 23:20 | 41.30535 | -95.89265 | 983 ft | 18 kts | 324° |
| 2026-04-29 23:21 | 41.30627 | -95.89276 | 983 ft | 14 kts | 48° |
| 2026-04-29 23:21 | 41.30679 | -95.89160 | 982 ft | 14 kts | 89° |
| 2026-04-29 23:21 | 41.30616 | -95.89075 | 981 ft | 13 kts | 144° |
| 2026-04-29 23:21 | 41.30543 | -95.89004 | 981 ft | 13 kts | 144° |
| 2026-04-29 23:22 | 41.30470 | -95.88935 | 981 ft | 13 kts | 144° |
| 2026-04-29 23:22 | 41.30398 | -95.88867 | 981 ft | 12 kts | 144° |
| 2026-04-29 23:22 | 41.30343 | -95.88792 | 981 ft | 10 kts | 91° |
| 2026-04-29 23:22 | 41.30332 | -95.88715 | 984 ft | 8 kts | 142° |
| 2026-04-29 23:23 | 41.30313 | -95.88655 | 984 ft | 7 kts | 77° |
| 2026-04-29 23:23 | 41.30325 | -95.88590 | 981 ft | 7 kts | 76° |
| 2026-04-29 23:23 | 41.30315 | -95.88557 | 981 ft | 0 kts | 149° |
| 2026-04-29 23:23 | 41.30310 | -95.88555 | 988 ft | 0 kts | 158° |